Time;durP1;ratioP1;P1;durP2;ratioP2;P2;SDS_P1;SDS_P2;PMS_P1;PMS_P2;Temp;Humidity;BMP_temperature;BMP_pressure;BME280_temperature;BME280_humidity;BME280_pressure;Samples;Min_cycle;Max_cycle;Signal;HPM_P1;HPM_P2
2022/06/08 00:02:24;;;;;;;;;;;15.60;1.00;;;;;;5081164;28;19919;-87
2022/06/08 00:04:50;;;;;;;;;;;15.60;1.00;;;;;;5080328;28;19920;-88
2022/06/08 00:07:17;;;;;;;;;;;15.50;1.00;;;;;;5080221;28;20424;-88
2022/06/08 00:09:44;;;;;;;;;;;15.60;1.00;;;;;;5072631;28;19920;-88
2022/06/08 00:12:14;;;;;;;;;;;15.50;96.50;;;;;;5076456;28;19920;-88
2022/06/08 00:14:42;;;;;;;;;;;15.60;99.90;;;;;;5085954;28;20428;-89
2022/06/08 00:17:09;;;;;;;;;;;15.50;99.90;;;;;;5073068;28;19927;-88
2022/06/08 00:19:37;;;;;;;;;;;15.50;1.00;;;;;;5073083;28;19928;-88
2022/06/08 00:22:04;;;;;;;;;;;15.50;1.00;;;;;;5092924;28;19974;-88
2022/06/08 00:24:31;;;;;;;;;;;15.60;1.00;;;;;;5073106;28;19920;-88
2022/06/08 00:26:58;;;;;;;;;;;15.50;1.00;;;;;;5072551;28;20405;-89
2022/06/08 00:29:25;;;;;;;;;;;15.50;1.00;;;;;;5073369;28;20278;-89
2022/06/08 00:31:52;;;;;;;;;;;15.50;1.00;;;;;;5084357;28;19920;-89
2022/06/08 00:34:18;;;;;;;;;;;15.50;1.00;;;;;;5072696;28;20399;-87
2022/06/08 00:36:47;;;;;;;;;;;15.50;1.00;;;;;;5072935;28;19920;-87
2022/06/08 00:39:13;;;;;;;;;;;15.50;99.90;;;;;;5086900;28;19920;-87
2022/06/08 00:41:42;;;;;;;;;;;15.50;99.90;;;;;;5083575;28;19986;-87
2022/06/08 00:44:12;;;;;;;;;;;15.50;1.00;;;;;;5074393;28;19974;-90
2022/06/08 00:46:39;;;;;;;;;;;15.50;1.00;;;;;;5072775;28;19920;-87
2022/06/08 00:49:09;;;;;;;;;;;15.40;1.00;;;;;;5072579;28;19921;-89
2022/06/08 00:51:36;;;;;;;;;;;15.40;1.00;;;;;;5092164;28;19926;-87
2022/06/08 00:54:08;;;;;;;;;;;15.40;1.00;;;;;;5080592;28;19989;-88
2022/06/08 00:56:36;;;;;;;;;;;15.40;1.00;;;;;;5072870;28;20374;-88
2022/06/08 00:59:03;;;;;;;;;;;15.40;1.00;;;;;;5072232;28;19927;-87
2022/06/08 01:01:30;;;;;;;;;;;15.40;1.00;;;;;;5075355;28;20336;-88
2022/06/08 01:04:07;;;;;;;;;;;15.40;1.00;;;;;;5072535;28;19920;-88
2022/06/08 01:06:34;;;;;;;;;;;15.40;1.00;;;;;;5072648;28;19928;-88
2022/06/08 01:09:01;;;;;;;;;;;15.30;1.00;;;;;;5072371;28;19923;-89
2022/06/08 01:11:33;;;;;;;;;;;15.30;1.00;;;;;;5086681;28;19919;-87
2022/06/08 01:14:02;;;;;;;;;;;15.30;16.80;;;;;;5072399;28;19920;-87
2022/06/08 01:16:31;;;;;;;;;;;15.40;1.00;;;;;;5072614;28;19920;-88
2022/06/08 01:18:57;;;;;;;;;;;15.30;72.70;;;;;;5072359;28;20363;-88
2022/06/08 01:21:43;;;;;;;;;;;15.30;1.00;;;;;;5092499;28;19927;-89
2022/06/08 01:24:12;;;;;;;;;;;15.30;1.00;;;;;;5072233;28;20440;-87
2022/06/08 01:26:42;;;;;;;;;;;15.30;92.10;;;;;;5086625;28;19920;-89
2022/06/08 01:29:13;;;;;;;;;;;15.30;99.90;;;;;;5076592;28;19921;-88
2022/06/08 01:31:46;;;;;;;;;;;15.30;99.90;;;;;;5085803;28;19920;-88
2022/06/08 01:34:17;;;;;;;;;;;15.30;99.90;;;;;;5072206;28;20361;-88
2022/06/08 01:36:53;;;;;;;;;;;15.30;96.40;;;;;;5072115;28;19928;-89
2022/06/08 01:39:28;;;;;;;;;;;15.30;99.90;;;;;;5094724;28;20371;-89
2022/06/08 01:42:10;;;;;;;;;;;15.30;99.90;;;;;;5072211;28;19970;-88
2022/06/08 01:45:28;;;;;;;;;;;15.30;99.90;;;;;;5070177;28;19921;-87
2022/06/08 01:47:34;;;;;;;;;;;15.30;99.90;;;;;;5073883;28;19974;-88
2022/06/08 01:50:05;;;;;;;;;;;15.20;99.90;;;;;;5091411;28;19928;-87
2022/06/08 01:52:37;;;;;;;;;;;15.20;99.90;;;;;;5072270;28;19925;-89
2022/06/08 01:55:10;;;;;;;;;;;15.20;99.90;;;;;;5072138;28;19920;-88
2022/06/08 01:57:47;;;;;;;;;;;15.20;99.90;;;;;;5075707;28;19995;-88
2022/06/08 02:00:16;;;;;;;;;;;15.20;99.90;;;;;;5085416;28;20023;-89
2022/06/08 02:02:51;;;;;;;;;;;15.10;99.90;;;;;;5091889;28;20323;-88
2022/06/08 02:05:21;;;;;;;;;;;15.10;99.90;;;;;;5092794;28;19920;-88
2022/06/08 02:07:52;;;;;;;;;;;15.00;99.90;;;;;;5091161;28;19974;-89
2022/06/08 02:10:23;;;;;;;;;;;15.00;63.40;;;;;;5095491;28;19973;-87
2022/06/08 02:12:52;;;;;;;;;;;14.90;41.70;;;;;;5095790;28;19927;-87
2022/06/08 02:15:20;;;;;;;;;;;15.00;76.40;;;;;;5095457;28;19926;-88
2022/06/08 02:17:50;;;;;;;;;;;14.90;99.90;;;;;;5083664;28;19924;-87
2022/06/08 02:20:18;;;;;;;;;;;14.90;99.90;;;;;;5103659;28;19920;-88
2022/06/08 02:22:48;;;;;;;;;;;14.90;95.50;;;;;;5095323;28;19920;-89
2022/06/08 02:25:16;;;;;;;;;;;14.90;99.90;;;;;;5095577;28;19974;-88
2022/06/08 02:27:46;;;;;;;;;;;14.80;99.90;;;;;;5095998;28;19965;-88
2022/06/08 02:30:15;;;;;;;;;;;14.80;99.90;;;;;;5105529;28;19928;-87
2022/06/08 02:35:30;;;;;;;;;;;14.80;99.90;;;;;;5085669;28;20005;-87
2022/06/08 02:38:02;;;;;;;;;;;14.70;99.90;;;;;;5095182;28;19931;-88
2022/06/08 02:40:30;;;;;;;;;;;14.70;99.90;;;;;;5095085;28;20320;-90
2022/06/08 02:42:59;;;;;;;;;;;14.70;99.90;;;;;;5094714;28;20443;-88
2022/06/08 02:45:27;;;;;;;;;;;14.60;99.90;;;;;;5095165;28;19924;-89
2022/06/08 02:47:56;;;;;;;;;;;14.60;99.90;;;;;;5094897;28;19920;-87
2022/06/08 02:50:24;;;;;;;;;;;14.60;99.90;;;;;;5094849;28;20373;-87
2022/06/08 02:52:52;;;;;;;;;;;14.60;99.90;;;;;;5094633;28;19920;-88
2022/06/08 02:55:20;;;;;;;;;;;14.60;99.90;;;;;;5094849;28;20093;-87
2022/06/08 02:57:49;;;;;;;;;;;14.60;99.90;;;;;;5096690;28;20385;-88
2022/06/08 03:00:21;;;;;;;;;;;14.60;99.90;;;;;;5094297;28;20332;-87
2022/06/08 03:02:49;;;;;;;;;;;14.60;99.90;;;;;;5095211;28;19948;-88
2022/06/08 03:05:18;;;;;;;;;;;14.60;99.90;;;;;;5086180;28;20370;-87
2022/06/08 03:07:47;;;;;;;;;;;14.60;99.90;;;;;;5091209;28;20316;-88
2022/06/08 03:10:15;;;;;;;;;;;14.60;99.90;;;;;;5092741;28;19924;-89
2022/06/08 03:12:44;;;;;;;;;;;14.60;99.90;;;;;;5111666;28;19924;-87
2022/06/08 03:15:15;;;;;;;;;;;14.60;99.90;;;;;;5108215;28;19924;-88
2022/06/08 03:17:47;;;;;;;;;;;14.70;99.90;;;;;;5111243;28;19923;-88
2022/06/08 03:20:14;;;;;;;;;;;14.70;99.90;;;;;;5095391;28;19920;-86
2022/06/08 03:22:41;;;;;;;;;;;14.80;99.90;;;;;;5085635;28;20331;-86
2022/06/08 03:25:08;;;;;;;;;;;14.80;99.90;;;;;;5110174;28;19926;-88
2022/06/08 03:27:37;;;;;;;;;;;14.90;1.00;;;;;;5107322;28;19919;-86
2022/06/08 03:30:04;;;;;;;;;;;14.90;1.00;;;;;;5099827;28;19920;-86
2022/06/08 03:32:31;;;;;;;;;;;15.00;1.00;;;;;;5105879;28;20386;-85
2022/06/08 03:34:59;;;;;;;;;;;15.10;1.00;;;;;;5102168;28;19924;-86
2022/06/08 03:37:26;;;;;;;29.87;20.73;;;15.20;1.00;;;;;;5086859;28;20346;-86
2022/06/08 03:39:53;;;;;;;30.07;20.27;;;15.30;1.00;;;;;;5090091;28;20205;-87
2022/06/08 03:42:20;;;;;;;29.27;20.07;;;15.30;1.00;;;;;;5092527;28;20241;-88
2022/06/08 03:44:47;;;;;;;27.77;19.47;;;15.30;1.00;;;;;;5088419;28;20198;-88
2022/06/08 03:47:19;;;;;;;26.27;19.63;;;15.40;1.00;;;;;;5083341;28;20184;-87
2022/06/08 03:49:47;;;;;;;26.50;20.03;;;15.40;1.00;;;;;;5093706;28;20183;-87
2022/06/08 03:52:20;;;;;;;26.40;20.33;;;15.40;1.00;;;;;;5089457;28;20240;-87
2022/06/08 03:54:54;;;;;;;29.30;21.47;;;15.50;1.00;;;;;;5094387;28;20257;-86
2022/06/08 03:57:22;;;;;;;26.90;20.07;;;15.50;1.00;;;;;;5083107;28;20188;-88
2022/06/08 03:59:51;;;;;;;26.60;18.93;;;15.50;1.00;;;;;;5090711;28;20198;-86
2022/06/08 04:02:19;;;;;;;26.33;19.73;;;15.50;1.00;;;;;;5084904;28;20272;-88
2022/06/08 04:04:47;;;;;;;28.17;20.47;;;15.50;1.00;;;;;;5085756;28;20192;-86
2022/06/08 04:07:16;;;;;;;27.90;21.33;;;15.60;1.00;;;;;;5082559;28;20647;-86
2022/06/08 04:09:43;;;;;;;28.10;20.77;;;15.60;1.00;;;;;;5084345;28;20279;-87
2022/06/08 04:12:11;;;;;;;24.97;20.00;;;15.60;1.00;;;;;;5088801;28;20192;-86
2022/06/08 04:14:39;;;;;;;29.70;21.00;;;15.70;1.00;;;;;;5099745;28;20199;-87
2022/06/08 04:17:07;;;;;;;28.33;20.10;;;15.80;1.00;;;;;;5099118;28;20550;-86
2022/06/08 04:19:35;;;;;;;27.40;21.70;;;15.90;1.00;;;;;;5089139;28;20643;-87
2022/06/08 04:22:02;;;;;;;30.08;22.95;;;16.00;1.00;;;;;;5087335;28;20430;-87
2022/06/08 04:24:31;;;;;;;31.10;21.92;;;16.20;1.00;;;;;;5078686;28;20200;-86
2022/06/08 04:26:58;;;;;;;26.80;20.95;;;16.30;1.00;;;;;;5077596;28;20202;-87
2022/06/08 04:29:25;;;;;;;29.40;21.42;;;16.50;1.00;;;;;;5080780;28;20195;-88
2022/06/08 04:31:52;;;;;;;28.08;22.30;;;16.70;1.00;;;;;;5094463;28;20200;-88
2022/06/08 04:34:25;;;;;;;30.98;21.63;;;16.80;1.00;;;;;;5087781;28;20201;-88
2022/06/08 04:36:54;;;;;;;31.73;21.00;;;17.00;1.00;;;;;;5095691;28;20236;-89
2022/06/08 04:39:21;;;;;;;26.17;20.13;;;17.30;1.00;;;;;;5096026;28;20203;-89
2022/06/08 04:41:50;;;;;;;25.23;19.80;;;17.60;1.00;;;;;;5092360;28;20196;-88
2022/06/08 04:44:17;;;;;;;23.20;18.42;;;17.70;1.00;;;;;;5083411;28;20314;-90
2022/06/08 04:46:44;;;;;;;21.40;18.17;;;17.90;1.00;;;;;;5098129;28;20198;-89
2022/06/08 04:49:11;;;;;;;19.17;16.80;;;18.00;1.00;;;;;;5100723;28;20191;-88
2022/06/08 04:51:39;;;;;;;20.20;16.92;;;18.20;99.90;;;;;;5100277;28;20227;-87
2022/06/08 04:54:06;;;;;;;19.27;16.25;;;18.40;1.00;;;;;;5094781;28;20196;-86
2022/06/08 04:56:33;;;;;;;18.88;16.58;;;18.50;1.00;;;;;;5096484;28;20200;-87
2022/06/08 04:59:02;;;;;;;18.38;16.35;;;18.50;1.00;;;;;;5085322;28;20701;-88
2022/06/08 05:01:29;;;;;;;17.88;15.90;;;18.40;99.90;;;;;;5079501;28;20204;-87
2022/06/08 05:03:57;;;;;;;19.30;15.77;;;18.40;74.90;;;;;;5084439;28;20264;-88
2022/06/08 05:06:25;;;;;;;17.88;15.52;;;18.40;1.00;;;;;;5075165;28;20192;-89
2022/06/08 05:08:52;;;;;;;18.17;15.60;;;18.50;1.00;;;;;;5090751;28;20731;-86
2022/06/08 05:11:20;;;;;;;20.98;16.27;;;18.50;1.00;;;;;;5092797;28;20196;-88
2022/06/08 05:13:47;;;;;;;20.40;15.20;;;18.40;1.00;;;;;;5092275;28;20203;-87
2022/06/08 05:16:15;;;;;;;21.88;15.88;;;18.30;1.00;;;;;;5092559;28;20402;-90
2022/06/08 05:18:42;;;;;;;20.30;15.93;;;18.30;1.00;;;;;;5092387;28;20294;-89
2022/06/08 05:21:09;;;;;;;20.48;15.85;;;18.20;1.00;;;;;;5092589;28;20191;-89
2022/06/08 05:23:40;;;;;;;17.40;14.85;;;18.20;1.00;;;;;;5092714;28;20219;-89
2022/06/08 05:26:08;;;;;;;18.20;15.63;;;18.10;99.90;;;;;;5092804;28;20200;-88
2022/06/08 05:28:35;;;;;;;21.15;16.38;;;18.10;99.90;;;;;;5092518;28;20261;-88
2022/06/08 05:31:03;;;;;;;20.05;16.58;;;18.20;99.90;;;;;;5092338;28;20248;-88
2022/06/08 05:33:31;;;;;;;21.52;16.25;;;18.20;99.90;;;;;;5092587;28;20195;-89
2022/06/08 05:35:59;;;;;;;20.67;15.68;;;18.30;99.90;;;;;;5088822;28;20192;-88
2022/06/08 05:38:26;;;;;;;24.40;17.25;;;18.30;99.90;;;;;;5082167;28;20526;-89
2022/06/08 05:40:54;;;;;;;23.55;19.05;;;18.30;1.00;;;;;;5093420;28;20211;-88
2022/06/08 05:43:21;;;;;;;21.55;16.52;;;18.30;1.00;;;;;;5095940;28;20609;-90
2022/06/08 05:45:48;;;;;;;17.77;15.88;;;18.30;1.00;;;;;;5095824;28;20232;-89
2022/06/08 05:48:16;;;;;;;19.60;15.70;;;18.30;1.00;;;;;;5082326;28;20248;-89
2022/06/08 05:50:46;;;;;;;18.80;16.40;;;18.40;1.00;;;;;;5096350;28;20207;-88
2022/06/08 05:53:15;;;;;;;17.20;15.38;;;18.50;1.00;;;;;;5096042;28;20195;-91
2022/06/08 05:55:43;;;;;;;18.65;15.88;;;18.60;1.00;;;;;;5084140;28;20223;-89
2022/06/08 05:58:10;;;;;;;19.50;15.90;;;18.60;99.90;;;;;;5094295;28;20203;-89
2022/06/08 06:00:40;;;;;;;19.45;16.35;;;18.70;99.90;;;;;;5096057;28;20199;-88
2022/06/08 06:03:07;;;;;;;19.38;15.40;;;18.80;47.50;;;;;;5096009;28;20231;-89
2022/06/08 06:05:36;;;;;;;19.80;15.55;;;18.90;1.00;;;;;;5096089;28;20200;-89
2022/06/08 06:08:05;;;;;;;16.83;14.88;;;18.90;1.00;;;;;;5083747;28;20598;-89
2022/06/08 06:10:35;;;;;;;19.33;16.23;;;18.90;99.90;;;;;;5093761;28;20199;-88
2022/06/08 06:13:03;;;;;;;22.10;16.83;;;19.00;99.90;;;;;;5095586;28;20199;-89
2022/06/08 06:15:30;;;;;;;24.38;18.30;;;19.00;99.90;;;;;;5095843;28;20250;-88
2022/06/08 06:17:57;;;;;;;22.58;15.18;;;19.10;99.90;;;;;;5095368;28;20188;-89
2022/06/08 06:20:25;;;;;;;19.70;15.85;;;19.10;1.00;;;;;;5095441;28;20207;-87
2022/06/08 06:22:52;;;;;;;17.17;15.30;;;19.10;1.00;;;;;;5087672;28;20216;-88
2022/06/08 06:25:21;;;;;;;20.40;15.70;;;19.10;1.00;;;;;;5088979;28;20244;-87
2022/06/08 06:27:49;;;;;;;17.67;15.48;;;19.20;99.90;;;;;;5081550;28;20245;-88
2022/06/08 06:30:16;;;;;;;22.52;16.33;;;19.20;99.90;;;;;;5095250;28;20650;-90
2022/06/08 06:32:45;;;;;;;18.30;15.35;;;19.20;99.90;;;;;;5095329;28;20641;-89
2022/06/08 06:35:19;;;;;;;22.35;16.38;;;19.20;99.90;;;;;;5095310;28;20187;-88
2022/06/08 06:37:46;;;;;;;19.92;15.52;;;19.20;26.00;;;;;;5095351;28;20203;-89
2022/06/08 06:40:14;;;;;;;21.33;16.77;;;19.30;57.20;;;;;;5095240;28;20595;-89
2022/06/08 06:42:43;;;;;;;22.05;16.67;;;19.40;19.90;;;;;;5092797;28;20649;-89
2022/06/08 06:45:12;;;;;;;17.45;15.55;;;19.50;1.00;;;;;;5084157;28;20602;-89
2022/06/08 06:47:39;;;;;;;18.23;15.75;;;19.70;1.00;;;;;;5094798;28;20644;-89
2022/06/08 06:50:10;;;;;;;18.38;15.88;;;19.70;1.00;;;;;;5095111;28;20196;-89
2022/06/08 06:52:37;;;;;;;17.33;15.32;;;19.80;1.00;;;;;;5080300;28;20669;-88
2022/06/08 06:55:04;;;;;;;;;;;20.20;1.00;;;;;;5095313;28;20486;-89
2022/06/08 07:00:17;;;;;;;13.40;12.00;;;23.00;99.90;;;;;;5082013;28;20195;-89
2022/06/08 07:02:45;;;;;;;13.50;12.20;;;24.60;99.90;;;;;;5094881;28;20603;-94
2022/06/08 07:05:17;;;;;;;12.65;11.07;;;25.90;1.00;;;;;;5080837;28;20195;-90
2022/06/08 07:07:44;;;;;;;11.05;9.88;;;26.60;1.00;;;;;;5085533;28;20642;-89
2022/06/08 07:10:11;;;;;;;11.13;10.05;;;27.30;1.00;;;;;;5091762;28;20178;-91
2022/06/08 07:12:38;;;;;;;10.73;9.63;;;28.60;1.00;;;;;;5094442;28;20311;-90
2022/06/08 07:15:06;;;;;;;10.68;9.68;;;29.90;99.90;;;;;;5094491;28;20211;-90
2022/06/08 07:17:34;;;;;;;13.10;10.40;;;30.60;99.90;;;;;;5094594;28;20562;-89
2022/06/08 07:20:03;;;;;;;9.45;8.65;;;30.90;83.00;;;;;;5093863;28;20176;-89
2022/06/08 07:22:31;;;;;;;13.45;9.40;;;31.50;26.90;;;;;;5094524;28;20645;-88
2022/06/08 07:24:58;;;;;;;10.25;9.25;;;32.00;1.00;;;;;;5094851;28;20653;-92
2022/06/08 07:27:25;;;;;;;10.68;9.40;;;32.80;1.00;;;;;;5093655;28;20191;-89
2022/06/08 07:29:52;;;;;;;10.02;8.55;;;33.70;1.00;;;;;;5094644;28;20203;-91
2022/06/08 07:32:19;;;;;;;15.50;13.43;;;34.70;1.00;;;;;;5094164;28;20280;-91
2022/06/08 07:34:47;;;;;;;8.13;7.38;;;35.60;1.00;;;;;;5086659;28;20216;-90
2022/06/08 07:37:14;;;;;;;7.90;7.10;;;36.50;1.00;;;;;;5088357;28;20559;-90
2022/06/08 07:39:42;;;;;;;7.68;6.60;;;37.20;1.00;;;;;;5080297;28;20191;-89
2022/06/08 07:42:09;;;;;;;8.10;7.40;;;37.90;1.00;;;;;;5094544;28;20202;-89
2022/06/08 07:44:36;;;;;;;8.65;7.18;;;38.30;1.00;;;;;;5094243;28;20195;-89
2022/06/08 07:49:36;;;;;;;8.35;6.28;;;38.50;1.00;;;;;;5097944;28;20183;-91
2022/06/08 07:50:24;;;;;;;7.22;6.50;;;38.90;1.00;;;;;;5114472;28;20191;-88
2022/06/08 07:52:51;;;;;;;7.22;6.53;;;39.00;1.00;;;;;;5086922;28;20285;-92
2022/06/08 07:55:18;;;;;;;7.18;6.57;;;39.50;1.00;;;;;;5094938;28;20195;-87
2022/06/08 07:57:47;;;;;;;9.65;7.30;;;39.80;1.00;;;;;;5095374;28;20791;-86
2022/06/08 08:00:15;;;;;;;6.60;5.90;;;39.70;1.00;;;;;;5094644;28;20191;-87
2022/06/08 08:02:42;;;;;;;18.25;7.18;;;39.30;1.00;;;;;;5085929;28;20217;-89
2022/06/08 08:05:27;;;;;;;;;;;;;;;;;;;;;
2022/06/08 08:07:56;;;;;;;7.47;6.88;;;39.00;1.00;;;;;;5087943;28;20205;-87
2022/06/08 08:10:25;;;;;;;9.15;6.93;;;39.10;1.00;;;;;;5094821;28;20207;-88
2022/06/08 08:12:55;;;;;;;15.65;13.15;;;39.70;1.00;;;;;;5094039;28;20203;-89
2022/06/08 08:15:39;;;;;;;35.08;31.77;;;40.20;1.00;;;;;;5104973;28;20247;-90
2022/06/08 08:18:37;;;;;;;8.27;6.88;;;40.20;1.00;;;;;;5103475;28;20210;-92
2022/06/08 08:21:04;;;;;;;7.53;6.70;;;40.20;1.00;;;;;;5097155;28;20194;-89
2022/06/08 08:23:32;;;;;;;7.68;6.20;;;40.20;1.00;;;;;;5084600;28;20215;-88
2022/06/08 08:25:59;;;;;;;9.50;6.03;;;40.10;1.00;;;;;;5081375;28;20192;-89
2022/06/08 08:28:27;;;;;;;6.85;6.20;;;39.90;1.00;;;;;;5098477;28;20191;-89
2022/06/08 08:30:54;;;;;;;8.95;6.22;;;40.10;1.00;;;;;;5082833;28;20226;-87
2022/06/08 08:33:21;;;;;;;6.10;5.60;;;40.20;1.00;;;;;;5089539;28;20558;-88
2022/06/08 08:35:50;;;;;;;6.38;5.78;;;40.40;1.00;;;;;;5099125;28;20198;-89
2022/06/08 08:38:19;;;;;;;10.73;5.95;;;40.50;1.00;;;;;;5081412;28;20241;-90
2022/06/08 08:40:50;;;;;;;5.22;4.53;;;40.60;1.00;;;;;;5092755;28;20748;-88
2022/06/08 08:43:20;;;;;;;7.47;5.10;;;40.70;1.00;;;;;;5093063;28;20219;-88
2022/06/08 08:46:00;;;;;;;5.20;4.70;;;40.80;1.00;;;;;;5093317;28;20273;-88
2022/06/08 08:48:29;;;;;;;5.50;4.57;;;40.80;1.00;;;;;;5093027;28;20179;-89
2022/06/08 08:51:04;;;;;;;6.55;4.63;;;40.80;1.00;;;;;;5092384;28;20195;-88
2022/06/08 08:53:43;;;;;;;4.68;4.15;;;40.80;1.00;;;;;;5092667;28;20582;-86
2022/06/08 08:56:16;;;;;;;15.15;5.78;;;40.90;1.00;;;;;;5092984;28;20203;-87
2022/06/08 08:58:46;;;;;;;5.20;4.75;;;41.00;1.00;;;;;;5092343;28;20609;-87
2022/06/08 09:01:18;;;;;;;5.05;4.65;;;41.10;1.00;;;;;;5092108;28;20655;-87
2022/06/08 09:03:48;;;;;;;5.53;5.03;;;41.00;1.00;;;;;;5092546;28;20207;-86
2022/06/08 09:06:18;;;;;;;6.55;4.88;;;40.90;1.00;;;;;;5092139;28;20600;-87
2022/06/08 09:08:48;;;;;;;8.80;5.50;;;40.70;1.00;;;;;;5077925;28;20246;-87
2022/06/08 09:11:20;;;;;;;8.85;5.28;;;40.00;1.00;;;;;;5092900;28;20365;-86
2022/06/08 09:13:50;;;;;;;8.20;6.00;;;38.90;1.00;;;;;;5089842;28;20198;-88
2022/06/08 09:16:32;;;;;;;10.65;5.93;;;38.00;1.00;;;;;;5085273;28;20252;-86
2022/06/08 09:18:59;;;;;;;6.60;5.90;;;37.20;1.00;;;;;;5096011;28;20199;-87
2022/06/08 09:21:31;;;;;;;6.72;6.00;;;36.20;1.00;;;;;;5096736;28;20229;-87
2022/06/08 09:24:00;;;;;;;6.25;5.65;;;35.80;1.00;;;;;;5096386;28;20204;-87
2022/06/08 09:26:35;;;;;;;5.50;4.47;;;35.30;1.00;;;;;;5096478;28;20664;-86
2022/06/08 09:29:15;;;;;;;4.88;4.32;;;34.90;1.00;;;;;;5096329;28;20191;-86
2022/06/08 09:31:43;;;;;;;5.43;4.65;;;34.90;1.00;;;;;;5086079;28;20196;-85
2022/06/08 09:34:19;;;;;;;5.50;5.00;;;34.90;1.00;;;;;;5092531;28;20236;-87
2022/06/08 09:37:03;;;;;;;5.45;4.95;;;34.60;1.00;;;;;;5095706;28;20284;-87
2022/06/08 09:39:30;;;;;;;11.60;5.13;;;34.40;1.00;;;;;;5095982;28;20227;-88
2022/06/08 09:42:01;;;;;;;5.55;4.15;;;34.20;1.00;;;;;;5096038;28;20237;-88
2022/06/08 09:44:29;;;;;;;4.55;4.15;;;34.10;1.00;;;;;;5095442;28;20204;-89
2022/06/08 09:53:07;;;;;;;4.43;3.95;;;34.40;1.00;;;;;;5095525;28;20226;-89
2022/06/08 09:55:47;;;;;;;;;;;33.80;1.00;;;;;;5095886;28;20070;-88
2022/06/08 09:58:33;;;;;;;6.05;4.50;;;33.40;1.00;;;;;;5095662;28;20212;-87
2022/06/08 10:01:09;;;;;;;6.88;3.90;;;33.10;1.00;;;;;;5095375;28;20582;-88
2022/06/08 10:04:02;;;;;;;5.72;3.40;;;32.90;1.00;;;;;;5095312;28;20195;-88
2022/06/08 10:06:41;;;;;;;4.28;3.78;;;33.00;1.00;;;;;;5096111;28;20202;-93
2022/06/08 10:09:28;;;;;;;4.22;3.42;;;33.10;1.00;;;;;;5100481;28;20292;-88
2022/06/08 10:12:06;;;;;;;2.08;1.95;;;33.20;1.00;;;;;;5095110;28;20206;-87
2022/06/08 10:14:43;;;;;;;2.50;1.25;;;33.10;1.00;;;;;;5094909;28;20215;-87
2022/06/08 10:17:17;;;;;;;1.83;1.20;;;33.00;1.00;;;;;;5095122;28;20190;-86
2022/06/08 10:19:54;;;;;;;1.73;1.40;;;32.60;1.00;;;;;;5095210;28;20264;-86
2022/06/08 10:22:28;;;;;;;1.90;1.45;;;32.00;1.00;;;;;;5095151;28;20195;-86
2022/06/08 10:24:59;;;;;;;3.45;1.60;;;31.70;1.00;;;;;;5094933;28;20348;-87
2022/06/08 10:27:33;;;;;;;3.58;1.73;;;31.60;1.00;;;;;;5094362;28;20192;-87
2022/06/08 10:30:10;;;;;;;4.93;1.98;;;31.60;1.00;;;;;;5094935;28;20188;-86
2022/06/08 10:32:44;;;;;;;1.17;1.08;;;31.70;1.00;;;;;;5096403;28;20256;-92
2022/06/08 10:35:23;;;;;;;1.75;1.30;;;31.80;1.00;;;;;;5095517;28;20257;-91
2022/06/08 10:37:56;;;;;;;2.28;1.23;;;31.70;1.00;;;;;;5089099;28;20257;-92
2022/06/08 10:40:30;;;;;;;2.05;1.20;;;31.60;1.00;;;;;;5091520;28;20183;-85
2022/06/08 10:42:57;;;;;;;6.40;1.80;;;31.60;1.00;;;;;;5094627;28;20563;-87
2022/06/08 10:45:37;;;;;;;2.15;1.17;;;31.30;1.00;;;;;;5094535;28;20685;-86
2022/06/08 10:48:28;;;;;;;2.90;1.60;;;30.80;1.00;;;;;;5094511;28;20558;-85
2022/06/08 10:51:41;;;;;;;2.17;1.50;;;30.50;1.00;;;;;;5083038;28;20320;-85
2022/06/08 10:54:57;;;;;;;5.63;1.45;;;30.60;1.00;;;;;;5081276;28;20550;-85
2022/06/08 10:58:03;;;;;;;3.20;1.20;;;30.50;1.00;;;;;;5094280;28;20266;-86
2022/06/08 11:01:05;;;;;;;2.33;1.50;;;30.40;1.00;;;;;;5071264;28;20294;-88
2022/06/08 11:04:06;;;;;;;1.98;1.40;;;30.40;1.00;;;;;;5094011;28;20219;-87
2022/06/08 11:07:05;;;;;;;1.77;1.50;;;30.40;1.00;;;;;;5090364;28;20195;-86
2022/06/08 11:09:54;;;;;;;3.95;2.00;;;30.40;1.00;;;;;;5083892;28;20227;-85
2022/06/08 11:12:37;;;;;;;4.72;2.35;;;30.40;1.00;;;;;;5093819;28;20641;-85
2022/06/08 11:15:15;;;;;;;9.32;2.53;;;30.40;1.00;;;;;;5094282;28;20196;-87
2022/06/08 11:17:52;;;;;;;3.47;1.80;;;30.40;1.00;;;;;;5093789;28;20187;-86
2022/06/08 11:20:23;;;;;;;5.85;3.72;;;30.30;1.00;;;;;;5093659;28;20210;-88
2022/06/08 11:22:54;;;;;;;2.22;2.03;;;30.30;1.00;;;;;;5093907;28;20644;-86
2022/06/08 11:25:26;;;;;;;3.67;1.90;;;30.00;1.00;;;;;;5093810;28;20269;-86
2022/06/08 11:28:25;;;;;;;1.67;1.58;;;30.00;1.00;;;;;;5080588;28;20271;-87
2022/06/08 11:30:54;;;;;;;4.03;2.95;;;30.00;1.00;;;;;;5066668;28;20574;-85
2022/06/08 11:33:23;;;;;;;3.65;1.77;;;29.90;1.00;;;;;;5093881;28;20188;-85
2022/06/08 11:36:00;;;;;;;2.60;2.20;;;30.00;1.00;;;;;;5093565;28;20258;-85
2022/06/08 11:38:52;;;;;;;5.70;1.70;;;30.10;1.00;;;;;;5092611;28;20276;-85
2022/06/08 11:41:34;;;;;;;2.53;1.73;;;30.10;1.00;;;;;;5093243;28;20668;-86
2022/06/08 11:44:11;;;;;;;2.95;1.80;;;30.10;1.00;;;;;;5093286;28;20668;-85
2022/06/08 11:46:40;;;;;;;2.00;1.80;;;29.90;1.00;;;;;;5080587;28;20187;-86
2022/06/08 11:49:32;;;;;;;1.75;1.50;;;29.70;1.00;;;;;;5093530;28;20195;-86
2022/06/08 11:52:00;;;;;;;3.38;1.85;;;29.50;1.00;;;;;;5082502;28;20192;-85
2022/06/08 11:54:31;;;;;;;4.45;2.13;;;29.30;1.00;;;;;;5093518;28;20203;-85
2022/06/08 11:57:05;;;;;;;3.45;1.85;;;29.30;1.00;;;;;;5093333;28;20190;-85
2022/06/08 11:59:37;;;;;;;4.45;2.13;;;29.30;1.00;;;;;;5078515;28;20188;-85
2022/06/08 12:02:18;;;;;;;2.20;1.85;;;29.30;1.00;;;;;;5093413;28;20215;-85
2022/06/08 12:04:50;;;;;;;2.33;1.55;;;29.40;1.00;;;;;;5095951;28;20222;-89
2022/06/08 12:07:43;;;;;;;4.82;1.90;;;29.30;1.00;;;;;;5087441;28;20188;-85
2022/06/08 12:10:14;;;;;;;2.20;1.60;;;29.20;1.00;;;;;;5087855;28;20275;-86
2022/06/08 12:12:44;;;;;;;1.48;1.38;;;29.10;1.00;;;;;;5093096;28;20188;-85
2022/06/08 12:15:33;;;;;;;2.40;1.70;;;29.20;1.00;;;;;;5092801;28;20293;-84
2022/06/08 12:18:23;;;;;;;2.90;1.60;;;29.20;1.00;;;;;;5093247;28;20222;-85
2022/06/08 12:21:07;;;;;;;3.17;1.83;;;29.10;1.00;;;;;;5092478;28;20601;-85
2022/06/08 12:23:39;;;;;;;3.20;1.75;;;29.00;1.00;;;;;;5092883;28;20245;-84
2022/06/08 12:26:14;;;;;;;2.88;1.50;;;29.00;1.00;;;;;;5092764;28;20219;-84
2022/06/08 12:28:41;;;;;;;1.65;1.50;;;29.00;1.00;;;;;;5093042;28;20183;-85
2022/06/08 12:31:25;;;;;;;5.10;1.58;;;29.10;1.00;;;;;;5092531;28;20195;-84
2022/06/08 12:33:52;;;;;;;3.80;1.65;;;29.20;1.00;;;;;;5092718;28;20210;-86
2022/06/08 12:36:22;;;;;;;1.60;1.50;;;29.10;1.00;;;;;;5092265;28;20206;-83
2022/06/08 12:39:00;;;;;;;2.05;1.50;;;29.10;1.00;;;;;;5092723;28;20188;-85
2022/06/08 12:41:40;;;;;;;3.95;1.90;;;28.90;1.00;;;;;;5078628;28;20219;-86
2022/06/08 12:44:16;;;;;;;2.58;1.50;;;28.90;1.00;;;;;;5095530;28;20191;-93
2022/06/08 12:46:51;;;;;;;1.30;1.10;;;29.00;1.00;;;;;;5084190;28;20224;-88
2022/06/08 12:49:21;;;;;;;4.03;1.50;;;29.30;1.00;;;;;;5087277;28;20195;-86
2022/06/08 12:51:53;;;;;;;3.55;1.45;;;29.40;1.00;;;;;;5086349;28;20199;-88
2022/06/08 12:54:23;;;;;;;1.80;1.27;;;29.50;1.00;;;;;;5089405;28;20187;-88
2022/06/08 12:56:53;;;;;;;1.52;1.40;;;29.70;1.00;;;;;;5092278;28;20195;-89
2022/06/08 12:59:21;;;;;;;1.45;1.30;;;29.70;1.00;;;;;;5092189;28;20183;-89
2022/06/08 13:01:48;;;;;;;1.73;1.58;;;29.80;1.00;;;;;;5091980;28;20192;-90
2022/06/08 13:04:19;;;;;;;2.00;1.30;;;29.70;1.00;;;;;;5092448;28;20207;-86
2022/06/08 13:06:46;;;;;;;4.30;1.30;;;29.60;1.00;;;;;;5090863;28;20553;-85
2022/06/08 13:09:18;;;;;;;2.50;1.30;;;29.60;1.00;;;;;;5079415;28;20230;-86
2022/06/08 13:11:54;;;;;;;2.72;1.52;;;29.60;1.00;;;;;;5071422;28;20421;-87
2022/06/08 13:14:21;;;;;;;3.13;1.40;;;29.60;1.00;;;;;;5072250;28;20184;-85
2022/06/08 13:16:49;;;;;;;4.03;1.60;;;29.50;1.00;;;;;;5071980;28;20650;-87
2022/06/08 13:19:17;;;;;;;5.03;1.50;;;29.40;1.00;;;;;;5071914;28;20192;-88
2022/06/08 13:21:47;;;;;;;3.28;1.25;;;29.40;1.00;;;;;;5072152;28;20219;-87
2022/06/08 13:24:16;;;;;;;1.30;1.20;;;29.50;1.00;;;;;;5071863;28;20192;-88
2022/06/08 13:26:44;;;;;;;2.17;1.40;;;29.60;1.00;;;;;;5071762;28;20248;-85
2022/06/08 13:29:13;;;;;;;5.75;1.50;;;29.70;1.00;;;;;;5071502;28;20650;-86
2022/06/08 13:31:40;;;;;;;3.22;1.40;;;29.60;1.00;;;;;;5071963;28;20301;-85
2022/06/08 13:34:07;;;;;;;1.42;1.27;;;29.60;1.00;;;;;;5071569;28;20193;-88
2022/06/08 13:36:39;;;;;;;4.07;1.38;;;29.50;1.00;;;;;;5071469;28;20203;-85
2022/06/08 13:39:29;;;;;;;3.38;1.40;;;29.50;1.00;;;;;;5072039;28;20253;-83
2022/06/08 13:41:59;;;;;;;2.67;1.40;;;29.50;1.00;;;;;;5071701;28;20219;-84
2022/06/08 13:44:30;;;;;;;2.03;1.50;;;29.40;1.00;;;;;;5071639;28;20195;-84
2022/06/08 13:47:00;;;;;;;1.50;1.40;;;29.40;1.00;;;;;;5071443;28;20600;-84
2022/06/08 13:49:32;;;;;;;1.48;1.30;;;29.40;1.00;;;;;;5071438;28;20203;-88